Terminal Aerodrome Forecast
Issued by NWS

Home | Current Version | Previous Version | Text Only | Print | Product List | Glossary On
Versions: 1 2 3 4 5 6 7 8 9 10 11 12 13 14 15
136
FTUS45 KRIW 300634 AAA
TAFJAC
TAF AMD
KJAC 300634Z 3007/0106 VRB04KT 5SM BR SCT005 BKN050
      TEMPO 3007/3011 1SM BR BKN005
     FM301200 VRB05KT P6SM VCSH OVC025
     FM302000 35010KT P6SM VCSH SCT024 OVC040
     FM010300 36011KT P6SM OVC050
      AMD LTD TO CLD VIS AND WIND=

USA.gov is the U.S. government's official web portal to all federal, state and local government web resources and services.